createdAt,value
2017-08-10T00:00:31.937Z,0
2017-08-10T00:01:12.525Z,0
2017-08-10T00:01:53.128Z,0
2017-08-10T00:02:33.704Z,0
2017-08-10T00:03:14.274Z,0
2017-08-10T00:03:54.849Z,0
2017-08-10T00:04:35.428Z,0
2017-08-10T00:05:16.025Z,0
2017-08-10T00:05:56.612Z,0
2017-08-10T00:06:37.197Z,0
2017-08-10T00:07:17.767Z,0
2017-08-10T00:07:58.345Z,0
2017-08-10T00:08:38.907Z,0
2017-08-10T00:09:19.482Z,0
2017-08-10T00:10:00.048Z,0
2017-08-10T00:10:40.630Z,0
2017-08-10T00:11:21.231Z,0
2017-08-10T00:12:01.810Z,0
2017-08-10T00:12:42.380Z,0
2017-08-10T00:13:22.961Z,0
2017-08-10T00:14:03.529Z,0
2017-08-10T00:14:44.108Z,0
2017-08-10T00:15:24.723Z,0
2017-08-10T00:16:05.289Z,0
2017-08-10T00:16:45.853Z,0
2017-08-10T00:17:26.411Z,0
2017-08-10T00:18:06.986Z,0
2017-08-10T00:18:47.566Z,0
2017-08-10T00:19:28.147Z,0
2017-08-10T00:20:08.720Z,0
2017-08-10T00:20:49.298Z,0
2017-08-10T00:21:29.888Z,0
2017-08-10T00:22:10.450Z,0
2017-08-10T00:22:51.077Z,0
2017-08-10T00:23:31.617Z,0
2017-08-10T00:24:12.203Z,0
2017-08-10T00:24:52.784Z,0
2017-08-10T00:25:33.371Z,0
2017-08-10T00:26:13.956Z,0
2017-08-10T00:26:54.562Z,0
2017-08-10T00:27:41.835Z,0
2017-08-10T00:28:22.446Z,0
2017-08-10T00:29:03.020Z,0
2017-08-10T00:29:43.599Z,0
2017-08-10T00:30:24.185Z,0
2017-08-10T00:31:04.783Z,0
2017-08-10T00:31:45.372Z,0
2017-08-10T00:32:25.938Z,0
2017-08-10T00:33:06.507Z,0
2017-08-10T00:33:47.083Z,0
2017-08-10T00:34:27.654Z,0
2017-08-10T00:35:08.274Z,0
2017-08-10T00:35:48.829Z,0
2017-08-10T00:36:29.409Z,0
2017-08-10T00:37:09.984Z,0
2017-08-10T00:37:50.557Z,0
2017-08-10T00:38:31.157Z,0
2017-08-10T00:39:11.721Z,0
2017-08-10T00:39:52.304Z,0
2017-08-10T00:40:32.881Z,0
2017-08-10T00:41:13.480Z,0
2017-08-10T00:41:54.917Z,0
2017-08-10T00:42:35.493Z,0
2017-08-10T00:43:16.078Z,0
2017-08-10T00:43:56.668Z,0
2017-08-10T00:44:37.234Z,0
2017-08-10T00:45:17.814Z,0
2017-08-10T00:45:58.402Z,0
2017-08-10T00:46:38.970Z,0
2017-08-10T00:47:19.555Z,0
2017-08-10T00:48:00.119Z,0
2017-08-10T00:48:40.686Z,0
2017-08-10T00:49:21.277Z,0
2017-08-10T00:50:01.860Z,0
2017-08-10T00:50:42.437Z,0
2017-08-10T00:51:23.016Z,0
2017-08-10T00:52:03.585Z,0
2017-08-10T00:52:44.161Z,0
2017-08-10T00:53:24.765Z,0
2017-08-10T00:54:05.342Z,0
2017-08-10T00:54:45.930Z,0
2017-08-10T00:55:26.499Z,0
2017-08-10T00:56:07.078Z,0
2017-08-10T00:56:47.658Z,0
2017-08-10T00:57:28.232Z,0
2017-08-10T00:58:08.822Z,0
2017-08-10T00:58:49.431Z,0
2017-08-10T00:59:29.984Z,0
2017-08-10T01:00:10.556Z,0
2017-08-10T01:00:51.147Z,0
2017-08-10T01:01:31.734Z,0
2017-08-10T01:02:12.313Z,0
2017-08-10T01:02:52.898Z,0
2017-08-10T01:03:33.481Z,0
2017-08-10T01:04:14.074Z,0
2017-08-10T01:04:54.668Z,0
2017-08-10T01:05:35.248Z,0
2017-08-10T01:06:15.826Z,0
2017-08-10T01:06:56.399Z,0
2017-08-10T01:07:36.967Z,0
2017-08-10T01:08:17.560Z,0
2017-08-10T01:08:58.135Z,0
2017-08-10T01:09:38.741Z,0
2017-08-10T01:10:19.327Z,0
2017-08-10T01:10:59.933Z,0
2017-08-10T01:11:40.533Z,0
2017-08-10T01:12:21.115Z,0
2017-08-10T01:13:01.724Z,0
2017-08-10T01:13:42.284Z,0
2017-08-10T01:14:22.863Z,0
2017-08-10T01:15:03.462Z,0
2017-08-10T01:15:44.050Z,0
2017-08-10T01:16:24.641Z,0
2017-08-10T01:17:05.213Z,0
2017-08-10T01:17:45.790Z,0
2017-08-10T01:18:26.419Z,0
2017-08-10T01:19:06.999Z,0
2017-08-10T01:19:47.587Z,0
2017-08-10T01:20:28.168Z,0
2017-08-10T01:21:08.756Z,0
2017-08-10T01:21:49.326Z,0
2017-08-10T01:22:29.928Z,0
2017-08-10T01:23:10.538Z,0
2017-08-10T01:23:51.117Z,0
2017-08-10T01:24:31.712Z,0
2017-08-10T01:25:12.285Z,0
2017-08-10T01:25:52.851Z,0
2017-08-10T01:26:33.425Z,0
2017-08-10T01:27:14.010Z,0
2017-08-10T01:27:54.580Z,0
2017-08-10T01:28:35.159Z,0
2017-08-10T01:29:15.742Z,0
2017-08-10T01:29:56.322Z,0
2017-08-10T01:30:36.916Z,0
2017-08-10T01:31:17.561Z,0
2017-08-10T01:31:58.123Z,0
2017-08-10T01:32:38.702Z,0
2017-08-10T01:33:19.300Z,0
2017-08-10T01:33:59.868Z,0
2017-08-10T01:34:40.450Z,0
2017-08-10T01:35:21.027Z,0
2017-08-10T01:36:01.579Z,0
2017-08-10T01:36:42.154Z,0
2017-08-10T01:37:22.730Z,0
2017-08-10T01:38:03.304Z,0
2017-08-10T01:38:43.876Z,0
2017-08-10T01:39:24.448Z,0
2017-08-10T01:40:05.085Z,0
2017-08-10T01:40:45.645Z,0
2017-08-10T01:41:26.225Z,0
2017-08-10T01:42:06.802Z,0
2017-08-10T01:42:47.387Z,0
2017-08-10T01:43:27.955Z,0
2017-08-10T01:44:08.541Z,0
2017-08-10T01:44:49.112Z,0
2017-08-10T01:45:29.687Z,0
2017-08-10T01:46:10.270Z,0
2017-08-10T01:46:50.858Z,0
2017-08-10T01:47:31.440Z,0
2017-08-10T01:48:12.031Z,0
2017-08-10T01:48:52.611Z,0
2017-08-10T01:49:33.184Z,0
2017-08-10T01:50:13.771Z,0
2017-08-10T01:50:54.340Z,0
2017-08-10T01:51:34.910Z,0
2017-08-10T01:52:15.483Z,0
2017-08-10T01:52:56.086Z,0
2017-08-10T01:53:36.663Z,0
2017-08-10T01:54:17.235Z,0
2017-08-10T01:54:57.808Z,0
2017-08-10T01:55:38.394Z,0
2017-08-10T01:56:18.971Z,0
2017-08-10T01:56:59.546Z,0
2017-08-10T01:57:40.146Z,0
2017-08-10T01:58:20.706Z,0
2017-08-10T01:59:01.277Z,0
2017-08-10T01:59:41.844Z,0
2017-08-10T02:00:22.422Z,0
2017-08-10T02:01:03.005Z,0
2017-08-10T02:01:43.580Z,0
2017-08-10T02:02:24.152Z,0
2017-08-10T02:03:04.748Z,0
2017-08-10T02:03:45.309Z,0
2017-08-10T02:04:25.880Z,0
2017-08-10T02:05:06.457Z,0
2017-08-10T02:05:47.031Z,0
2017-08-10T02:06:27.621Z,0
2017-08-10T02:07:08.197Z,0
2017-08-10T02:07:48.792Z,0
2017-08-10T02:08:29.350Z,0
2017-08-10T02:09:09.929Z,0
2017-08-10T02:09:50.498Z,0
2017-08-10T02:10:31.072Z,0
2017-08-10T02:11:11.644Z,0
2017-08-10T02:11:52.216Z,0
2017-08-10T02:12:32.807Z,0
2017-08-10T02:13:13.378Z,0
2017-08-10T02:13:53.948Z,0
2017-08-10T02:14:34.531Z,0
2017-08-10T02:15:15.116Z,0
2017-08-10T02:15:55.689Z,0
2017-08-10T02:16:36.276Z,0
2017-08-10T02:17:16.872Z,0
2017-08-10T02:17:58.973Z,0
2017-08-10T02:18:39.546Z,0
2017-08-10T02:19:20.125Z,0
2017-08-10T02:20:00.685Z,0
2017-08-10T02:20:41.261Z,0
2017-08-10T02:21:21.844Z,0
2017-08-10T02:22:02.414Z,0
2017-08-10T02:22:42.978Z,0
2017-08-10T02:23:23.544Z,0
2017-08-10T02:24:04.124Z,0
2017-08-10T02:24:44.691Z,0
2017-08-10T02:25:25.259Z,0
2017-08-10T02:26:05.837Z,0
2017-08-10T02:26:46.410Z,0
2017-08-10T02:27:26.995Z,0
2017-08-10T02:28:07.562Z,0
2017-08-10T02:28:48.138Z,0
2017-08-10T02:29:28.700Z,0
2017-08-10T02:30:09.295Z,0
2017-08-10T02:30:49.892Z,0
2017-08-10T02:31:30.470Z,0
2017-08-10T02:32:11.058Z,0
2017-08-10T02:32:51.637Z,0
2017-08-10T02:33:32.221Z,0
2017-08-10T02:34:12.815Z,0
2017-08-10T02:34:53.379Z,0
2017-08-10T02:35:33.956Z,0
2017-08-10T02:36:14.529Z,0
2017-08-10T02:36:55.094Z,0
2017-08-10T02:37:35.671Z,0
2017-08-10T02:38:16.239Z,0
2017-08-10T02:38:56.855Z,0
2017-08-10T02:39:37.426Z,0
2017-08-10T02:40:17.980Z,0
2017-08-10T02:40:58.554Z,0
2017-08-10T02:41:39.130Z,0
2017-08-10T02:42:19.707Z,0
2017-08-10T02:43:00.293Z,0
2017-08-10T02:43:40.867Z,0
2017-08-10T02:44:21.443Z,0
2017-08-10T02:45:02.014Z,0
2017-08-10T02:45:42.600Z,0
2017-08-10T02:46:23.160Z,0
2017-08-10T02:47:03.726Z,0
2017-08-10T02:47:44.316Z,0
2017-08-10T02:48:24.882Z,0
2017-08-10T02:49:05.461Z,0
2017-08-10T02:49:46.024Z,0
2017-08-10T02:50:26.591Z,0
2017-08-10T02:51:07.149Z,0
2017-08-10T02:51:47.727Z,0
2017-08-10T02:52:28.291Z,0
2017-08-10T02:53:08.870Z,0
2017-08-10T02:53:49.442Z,0
2017-08-10T02:54:30.046Z,0
2017-08-10T02:55:10.619Z,0
2017-08-10T02:55:51.182Z,0
2017-08-10T02:56:31.755Z,0
2017-08-10T02:57:12.349Z,0
2017-08-10T02:57:52.925Z,0
2017-08-10T02:58:33.491Z,0
2017-08-10T02:59:14.068Z,0
2017-08-10T02:59:54.646Z,0
2017-08-10T03:00:35.235Z,0
2017-08-10T03:01:15.806Z,0
2017-08-10T03:01:56.384Z,0
2017-08-10T03:02:36.979Z,0
2017-08-10T03:03:17.550Z,0
2017-08-10T03:03:58.110Z,0
2017-08-10T03:04:38.676Z,0
2017-08-10T03:05:19.257Z,0
2017-08-10T03:05:59.848Z,0
2017-08-10T03:06:40.420Z,0
2017-08-10T03:07:20.971Z,0
2017-08-10T03:08:01.538Z,0
2017-08-10T03:08:42.109Z,0
2017-08-10T03:09:22.680Z,0
2017-08-10T03:10:03.253Z,0
2017-08-10T03:10:43.924Z,0
2017-08-10T03:11:24.521Z,0
2017-08-10T03:12:05.121Z,0
2017-08-10T03:12:45.693Z,0
2017-08-10T03:13:26.278Z,0
2017-08-10T03:14:06.861Z,0
2017-08-10T03:14:47.434Z,0
2017-08-10T03:15:28.011Z,0
2017-08-10T03:16:08.595Z,0
2017-08-10T03:16:49.174Z,0
2017-08-10T03:17:29.763Z,0
2017-08-10T03:18:10.329Z,0
2017-08-10T03:20:28.250Z,0
2017-08-10T03:21:08.820Z,0
2017-08-10T03:21:49.422Z,0
2017-08-10T03:22:30.000Z,0
2017-08-10T03:23:10.591Z,4
2017-08-10T03:23:51.162Z,4
2017-08-10T03:24:31.739Z,4
2017-08-10T03:25:12.324Z,4
2017-08-10T03:25:52.895Z,4
2017-08-10T03:26:33.474Z,4
2017-08-10T03:27:14.049Z,4
2017-08-10T03:27:54.625Z,4
2017-08-10T03:28:35.194Z,4
2017-08-10T03:29:15.766Z,8
2017-08-10T03:29:56.357Z,4
2017-08-10T03:30:36.926Z,4
2017-08-10T03:31:17.500Z,8
2017-08-10T03:31:58.062Z,8
2017-08-10T03:32:38.626Z,8
2017-08-10T03:33:19.192Z,8
2017-08-10T03:33:59.761Z,12
2017-08-10T03:34:40.335Z,8
2017-08-10T03:35:20.903Z,8
2017-08-10T03:36:01.478Z,12
2017-08-10T03:36:42.043Z,12
2017-08-10T03:37:22.616Z,12
2017-08-10T03:38:03.190Z,12
2017-08-10T03:38:43.778Z,16
2017-08-10T03:39:24.352Z,16
2017-08-10T03:40:04.943Z,16
2017-08-10T03:40:45.522Z,16
2017-08-10T03:41:26.084Z,20
2017-08-10T03:42:06.654Z,24
2017-08-10T03:42:47.248Z,24
2017-08-10T03:43:27.803Z,24
2017-08-10T03:44:08.381Z,28
2017-08-10T03:44:55.532Z,28
2017-08-10T03:45:36.108Z,32
2017-08-10T03:46:16.699Z,32
2017-08-10T03:46:57.272Z,32
2017-08-10T03:47:37.862Z,32
2017-08-10T03:48:18.476Z,36
2017-08-10T03:48:59.064Z,36
2017-08-10T03:49:39.652Z,40
2017-08-10T03:50:20.255Z,40
2017-08-10T03:51:00.838Z,44
2017-08-10T03:51:41.402Z,44
2017-08-10T03:52:22.092Z,48
2017-08-10T03:53:02.654Z,48
2017-08-10T03:53:43.267Z,52
2017-08-10T03:54:23.842Z,56
2017-08-10T03:55:04.433Z,60
2017-08-10T03:55:45.027Z,60
2017-08-10T03:56:25.613Z,64
2017-08-10T03:57:06.199Z,68
2017-08-10T03:57:46.774Z,72
2017-08-10T03:58:27.352Z,76
2017-08-10T03:59:07.927Z,84
2017-08-10T03:59:48.505Z,88
2017-08-10T04:00:29.076Z,88
2017-08-10T04:01:09.659Z,88
2017-08-10T04:01:50.221Z,92
2017-08-10T04:02:30.812Z,92
2017-08-10T04:03:11.381Z,96
2017-08-10T04:03:51.971Z,96
2017-08-10T04:04:32.563Z,100
2017-08-10T04:05:13.129Z,108
2017-08-10T04:05:53.724Z,112
2017-08-10T04:06:34.318Z,116
2017-08-10T04:07:14.904Z,124
2017-08-10T04:07:55.481Z,132
2017-08-10T04:08:36.045Z,140
2017-08-10T04:09:16.617Z,148
2017-08-10T04:09:57.192Z,160
2017-08-10T04:10:37.789Z,168
2017-08-10T04:11:18.356Z,172
2017-08-10T04:11:58.922Z,184
2017-08-10T04:12:39.502Z,188
2017-08-10T04:13:20.093Z,192
2017-08-10T04:14:00.669Z,196
2017-08-10T04:14:41.247Z,200
2017-08-10T04:15:21.819Z,204
2017-08-10T04:16:02.400Z,208
2017-08-10T04:16:42.976Z,212
2017-08-10T04:17:23.551Z,216
2017-08-10T04:18:04.120Z,212
2017-08-10T04:18:44.723Z,200
2017-08-10T04:19:25.298Z,192
2017-08-10T04:20:05.873Z,188
2017-08-10T04:20:46.446Z,188
2017-08-10T04:21:27.011Z,188
2017-08-10T04:22:07.585Z,196
2017-08-10T04:22:48.158Z,208
2017-08-10T04:23:28.713Z,220
2017-08-10T04:24:09.278Z,232
2017-08-10T04:24:49.842Z,244
2017-08-10T04:25:30.401Z,248
2017-08-10T04:26:10.990Z,256
2017-08-10T04:26:51.564Z,264
2017-08-10T04:27:32.128Z,268
2017-08-10T04:28:12.718Z,272
2017-08-10T04:28:53.285Z,276
2017-08-10T04:29:33.896Z,284
2017-08-10T04:30:14.471Z,288
2017-08-10T04:30:55.077Z,300
2017-08-10T04:31:35.651Z,312
2017-08-10T04:32:16.253Z,328
2017-08-10T04:32:56.814Z,340
2017-08-10T04:33:37.397Z,360
2017-08-10T04:34:17.968Z,380
2017-08-10T04:34:58.528Z,408
2017-08-10T04:35:39.109Z,436
2017-08-10T04:36:19.678Z,464
2017-08-10T04:37:00.247Z,492
2017-08-10T04:37:40.824Z,512
2017-08-10T04:38:21.404Z,532
2017-08-10T04:39:01.989Z,544
2017-08-10T04:39:42.600Z,552
2017-08-10T04:40:23.180Z,564
2017-08-10T04:41:03.754Z,580
2017-08-10T04:41:44.318Z,596
2017-08-10T04:42:24.887Z,612
2017-08-10T04:43:05.467Z,620
2017-08-10T04:43:46.038Z,636
2017-08-10T04:44:26.662Z,640
2017-08-10T04:45:07.245Z,632
2017-08-10T04:45:47.815Z,632
2017-08-10T04:46:28.385Z,632
2017-08-10T04:47:08.994Z,628
2017-08-10T04:47:49.566Z,620
2017-08-10T04:48:30.155Z,616
2017-08-10T04:49:10.737Z,612
2017-08-10T04:49:51.299Z,608
2017-08-10T04:50:31.858Z,600
2017-08-10T04:51:12.416Z,592
2017-08-10T04:51:52.987Z,588
2017-08-10T04:52:33.552Z,592
2017-08-10T04:53:14.134Z,596
2017-08-10T04:53:54.689Z,612
2017-08-10T04:54:35.255Z,632
2017-08-10T04:55:15.804Z,652
2017-08-10T04:55:56.377Z,664
2017-08-10T04:56:36.943Z,672
2017-08-10T04:57:17.521Z,672
2017-08-10T04:57:58.086Z,672
2017-08-10T04:58:38.662Z,664
2017-08-10T04:59:19.231Z,652
2017-08-10T04:59:59.820Z,636
2017-08-10T05:00:40.390Z,616
2017-08-10T05:01:20.991Z,604
2017-08-10T05:02:01.569Z,584
2017-08-10T05:02:42.153Z,572
2017-08-10T05:03:22.722Z,564
2017-08-10T05:04:03.291Z,568
2017-08-10T05:04:43.866Z,572
2017-08-10T05:05:24.430Z,576
2017-08-10T05:06:05.032Z,576
2017-08-10T05:06:45.625Z,568
2017-08-10T05:07:26.199Z,544
2017-08-10T05:08:06.767Z,508
2017-08-10T05:08:47.398Z,476
2017-08-10T05:09:27.992Z,460
2017-08-10T05:10:08.565Z,448
2017-08-10T05:10:49.172Z,432
2017-08-10T05:11:29.753Z,428
2017-08-10T05:12:10.328Z,420
2017-08-10T05:12:50.889Z,416
2017-08-10T05:13:31.456Z,408
2017-08-10T05:14:12.030Z,408
2017-08-10T05:14:52.590Z,416
2017-08-10T05:15:33.167Z,424
2017-08-10T05:16:13.736Z,436
2017-08-10T05:16:54.322Z,456
2017-08-10T05:17:34.929Z,468
2017-08-10T05:18:15.523Z,476
2017-08-10T05:18:56.106Z,476
2017-08-10T05:19:36.677Z,484
2017-08-10T05:20:17.277Z,480
2017-08-10T05:20:57.880Z,480
2017-08-10T05:21:38.517Z,480
2017-08-10T05:22:19.087Z,480
2017-08-10T05:22:59.659Z,476
2017-08-10T05:23:40.222Z,472
2017-08-10T05:24:20.876Z,484
2017-08-10T05:25:01.439Z,492
2017-08-10T05:25:42.058Z,508
2017-08-10T05:26:22.668Z,528
2017-08-10T05:27:03.230Z,552
2017-08-10T05:27:43.809Z,568
2017-08-10T05:28:24.388Z,576
2017-08-10T05:29:04.972Z,584
2017-08-10T05:29:45.535Z,588
2017-08-10T05:30:26.096Z,592
2017-08-10T05:31:06.667Z,596
2017-08-10T05:31:47.261Z,596
2017-08-10T05:32:27.849Z,600
2017-08-10T05:33:09.459Z,604
2017-08-10T05:33:50.017Z,604
2017-08-10T05:34:30.680Z,604
2017-08-10T05:35:11.400Z,608
2017-08-10T05:35:51.988Z,628
2017-08-10T05:36:32.566Z,652
2017-08-10T05:37:13.139Z,688
2017-08-10T05:37:53.705Z,724
2017-08-10T05:38:34.332Z,764
2017-08-10T05:39:15.181Z,820
2017-08-10T05:39:55.786Z,864
2017-08-10T05:40:36.510Z,916
2017-08-10T05:41:17.076Z,984
2017-08-10T05:41:57.638Z,1048
2017-08-10T05:42:38.212Z,1136
2017-08-10T05:43:18.776Z,1240
2017-08-10T05:43:59.331Z,1348
2017-08-10T05:44:40.021Z,1436
2017-08-10T05:45:20.735Z,1504
2017-08-10T05:46:01.352Z,1624
2017-08-10T05:46:41.988Z,1644
2017-08-10T05:47:22.678Z,1616
2017-08-10T05:48:03.489Z,1584
2017-08-10T05:48:44.275Z,1600
2017-08-10T05:49:24.868Z,1620
2017-08-10T05:50:05.655Z,1668
2017-08-10T05:50:46.139Z,1732
2017-08-10T05:51:26.724Z,1824
2017-08-10T05:52:07.382Z,1952
2017-08-10T05:52:47.991Z,2120
2017-08-10T05:53:28.595Z,2296
2017-08-10T05:54:09.176Z,2420
2017-08-10T05:54:49.786Z,2484
2017-08-10T05:55:30.392Z,2540
2017-08-10T05:56:10.974Z,2548
2017-08-10T05:56:51.550Z,2512
2017-08-10T05:57:32.174Z,2420
2017-08-10T05:58:12.750Z,2300
2017-08-10T05:58:53.338Z,2184
2017-08-10T05:59:33.910Z,2100
2017-08-10T06:00:14.470Z,2044
2017-08-10T06:00:55.055Z,2004
2017-08-10T06:01:35.627Z,1992
2017-08-10T06:02:16.208Z,1992
2017-08-10T06:02:56.774Z,2008
2017-08-10T06:03:37.378Z,2016
2017-08-10T06:04:17.951Z,2028
2017-08-10T06:04:58.534Z,2032
2017-08-10T06:05:39.120Z,2036
2017-08-10T06:06:19.676Z,2044
2017-08-10T06:07:00.230Z,2048
2017-08-10T06:07:40.808Z,2064
2017-08-10T06:08:21.377Z,2100
2017-08-10T06:09:01.942Z,2120
2017-08-10T06:09:42.506Z,2124
2017-08-10T06:10:23.088Z,2124
2017-08-10T06:11:03.762Z,2120
2017-08-10T06:11:44.327Z,2116
2017-08-10T06:12:24.883Z,2124
2017-08-10T06:13:05.451Z,2124
2017-08-10T06:13:46.030Z,2116
2017-08-10T06:14:26.608Z,2088
2017-08-10T06:15:07.186Z,2076
2017-08-10T06:15:47.790Z,2064
2017-08-10T06:16:28.352Z,2056
2017-08-10T06:17:08.934Z,2056
2017-08-10T06:17:49.582Z,2084
2017-08-10T06:18:30.299Z,2128
2017-08-10T06:19:10.861Z,2172
2017-08-10T06:19:51.439Z,2228
2017-08-10T06:20:32.012Z,2296
2017-08-10T06:21:12.598Z,2360
2017-08-10T06:21:53.181Z,2436
2017-08-10T06:22:33.799Z,2508
2017-08-10T06:23:14.372Z,2592
2017-08-10T06:23:54.930Z,2672
2017-08-10T06:24:35.510Z,2748
2017-08-10T06:25:16.105Z,2836
2017-08-10T06:25:56.684Z,2900
2017-08-10T06:26:37.254Z,2976
2017-08-10T06:27:17.839Z,3072
2017-08-10T06:27:58.536Z,3176
2017-08-10T06:28:39.122Z,3252
2017-08-10T06:29:19.702Z,3332
2017-08-10T06:30:00.365Z,3404
2017-08-10T06:30:40.941Z,3456
2017-08-10T06:31:21.523Z,3528
2017-08-10T06:32:02.137Z,3564
2017-08-10T06:32:42.705Z,3580
2017-08-10T06:33:23.299Z,3596
2017-08-10T06:34:03.873Z,3660
2017-08-10T06:34:44.439Z,3700
2017-08-10T06:35:25.033Z,3716
2017-08-10T06:36:05.603Z,3760
2017-08-10T06:36:46.185Z,3760
2017-08-10T06:37:26.765Z,3800
2017-08-10T06:38:07.357Z,3856
2017-08-10T06:38:47.963Z,3796
2017-08-10T06:39:28.553Z,3804
2017-08-10T06:40:09.125Z,3836
2017-08-10T06:40:49.716Z,3828
2017-08-10T06:41:30.285Z,3848
2017-08-10T06:42:10.855Z,3768
2017-08-10T06:42:51.442Z,3720
2017-08-10T06:43:31.995Z,3756
2017-08-10T06:44:12.584Z,4012
2017-08-10T06:44:53.149Z,4472
2017-08-10T06:45:33.749Z,3700
2017-08-10T06:46:14.329Z,3108
2017-08-10T06:46:54.898Z,2700
2017-08-10T06:47:35.481Z,2452
2017-08-10T06:48:16.094Z,2284
2017-08-10T06:48:56.689Z,2160
2017-08-10T06:49:37.271Z,2068
2017-08-10T06:50:17.861Z,1956
2017-08-10T06:50:58.436Z,1868
2017-08-10T06:51:39.018Z,1820
2017-08-10T06:52:19.605Z,1796
2017-08-10T06:53:00.174Z,1788
2017-08-10T06:53:40.755Z,1776
2017-08-10T06:54:21.331Z,1768
2017-08-10T06:55:01.920Z,1752
2017-08-10T06:55:42.507Z,1740
2017-08-10T06:56:23.080Z,1744
2017-08-10T06:57:03.664Z,1764
2017-08-10T06:57:44.240Z,1800
2017-08-10T06:58:24.804Z,1844
2017-08-10T06:59:05.403Z,1884
2017-08-10T06:59:45.998Z,1912
2017-08-10T07:00:26.554Z,1944
2017-08-10T07:01:07.161Z,1968
2017-08-10T07:01:47.739Z,1992
2017-08-10T07:02:28.320Z,2000
2017-08-10T07:03:08.890Z,1984
2017-08-10T07:03:49.464Z,1960
2017-08-10T07:04:30.034Z,1948
2017-08-10T07:05:10.639Z,1932
2017-08-10T07:05:51.228Z,1924
2017-08-10T07:06:31.805Z,1944
2017-08-10T07:07:12.372Z,1980
2017-08-10T07:07:52.979Z,2044
2017-08-10T07:08:33.587Z,2072
2017-08-10T07:09:14.178Z,2152
2017-08-10T07:09:54.762Z,2200
2017-08-10T07:10:35.352Z,2232
2017-08-10T07:11:15.938Z,2292
2017-08-10T07:11:56.533Z,2372
2017-08-10T07:12:37.208Z,2460
2017-08-10T07:13:17.732Z,2532
2017-08-10T07:13:58.321Z,2612
2017-08-10T07:14:38.889Z,2688
2017-08-10T07:15:19.463Z,2824
2017-08-10T07:16:00.049Z,2796
2017-08-10T07:16:40.624Z,2760
2017-08-10T07:17:21.201Z,2728
2017-08-10T07:18:01.775Z,2776
2017-08-10T07:18:42.349Z,2852
2017-08-10T07:19:22.952Z,2932
2017-08-10T07:20:03.547Z,3056
2017-08-10T07:20:44.115Z,3200
2017-08-10T07:21:24.692Z,3312
2017-08-10T07:22:05.270Z,3352
2017-08-10T07:22:45.843Z,3268
2017-08-10T07:23:26.422Z,3272
2017-08-10T07:24:06.997Z,3388
2017-08-10T07:24:47.567Z,3580
2017-08-10T07:25:28.154Z,3824
2017-08-10T07:26:08.728Z,3864
2017-08-10T07:26:49.297Z,3800
2017-08-10T07:27:29.862Z,3808
2017-08-10T07:28:10.469Z,3804
2017-08-10T07:28:51.064Z,3692
2017-08-10T07:29:31.640Z,3616
2017-08-10T07:30:12.200Z,3644
2017-08-10T07:30:52.777Z,3840
2017-08-10T07:31:33.361Z,4200
2017-08-10T07:32:13.951Z,4584
2017-08-10T07:32:54.538Z,4752
2017-08-10T07:33:35.106Z,4996
2017-08-10T07:34:15.683Z,5492
2017-08-10T07:34:56.264Z,6448
2017-08-10T07:35:36.853Z,7756
2017-08-10T07:36:17.419Z,12376
2017-08-10T07:36:57.986Z,10412
2017-08-10T07:37:38.563Z,9864
2017-08-10T07:38:19.179Z,9332
2017-08-10T07:38:59.740Z,7384
2017-08-10T07:39:40.316Z,6184
2017-08-10T07:40:20.895Z,5460
2017-08-10T07:41:01.459Z,5608
2017-08-10T07:41:42.021Z,5364
2017-08-10T07:42:22.602Z,5272
2017-08-10T07:43:03.182Z,5188
2017-08-10T07:43:43.749Z,5112
2017-08-10T07:44:24.330Z,4920
2017-08-10T07:45:04.923Z,4644
2017-08-10T07:45:45.534Z,4352
2017-08-10T07:46:26.136Z,4160
2017-08-10T07:47:06.740Z,4004
2017-08-10T07:47:47.300Z,4004
2017-08-10T07:48:27.877Z,4192
2017-08-10T07:49:08.453Z,4452
2017-08-10T07:49:49.024Z,4864
2017-08-10T07:50:29.607Z,5288
2017-08-10T07:51:10.185Z,5916
2017-08-10T07:51:50.820Z,7108
2017-08-10T07:52:31.378Z,7428
2017-08-10T07:53:12.000Z,7680
2017-08-10T07:53:52.564Z,7744
2017-08-10T07:54:33.155Z,7484
2017-08-10T07:55:13.742Z,7100
2017-08-10T07:55:54.330Z,7188
2017-08-10T07:56:34.916Z,9908
2017-08-10T07:57:15.474Z,8436
2017-08-10T07:57:56.054Z,8572
2017-08-10T07:58:36.638Z,10552
2017-08-10T07:59:17.232Z,10656
2017-08-10T07:59:57.811Z,11328
2017-08-10T08:00:38.398Z,11996
2017-08-10T08:01:18.968Z,11472
2017-08-10T08:01:59.541Z,10832
2017-08-10T08:02:40.165Z,12212
2017-08-10T08:03:20.776Z,10404
2017-08-10T08:04:01.356Z,10180
2017-08-10T08:04:41.930Z,9368
2017-08-10T08:05:22.563Z,8136
2017-08-10T08:06:03.144Z,6868
2017-08-10T08:06:43.736Z,6168
2017-08-10T08:07:24.324Z,5796
2017-08-10T08:08:04.891Z,4880
2017-08-10T08:08:45.480Z,4292
2017-08-10T08:09:26.077Z,3960
2017-08-10T08:10:06.668Z,3872
2017-08-10T08:10:47.241Z,3896
2017-08-10T08:11:27.816Z,3976
2017-08-10T08:12:08.377Z,4060
2017-08-10T08:12:48.964Z,4144
2017-08-10T08:13:29.588Z,4240
2017-08-10T08:14:10.258Z,4400
2017-08-10T08:14:50.852Z,4604
2017-08-10T08:15:31.437Z,4848
2017-08-10T08:16:12.011Z,5144
2017-08-10T08:16:52.611Z,5380
2017-08-10T08:17:33.185Z,5464
2017-08-10T08:18:13.752Z,5444
2017-08-10T08:18:54.373Z,5404
2017-08-10T08:19:34.914Z,5356
2017-08-10T08:20:15.502Z,5320
2017-08-10T08:20:56.097Z,5324
2017-08-10T08:21:36.671Z,5368
2017-08-10T08:22:17.242Z,5412
2017-08-10T08:22:57.823Z,5420
2017-08-10T08:23:38.418Z,5368
2017-08-10T08:24:18.976Z,5340
2017-08-10T08:24:59.584Z,5396
2017-08-10T08:25:40.163Z,5592
2017-08-10T08:26:20.747Z,5668
2017-08-10T08:27:01.315Z,5632
2017-08-10T08:27:41.890Z,5480
2017-08-10T08:28:22.481Z,5368
2017-08-10T08:29:03.070Z,5376
2017-08-10T08:29:43.671Z,5488
2017-08-10T08:30:24.291Z,5592
2017-08-10T08:31:04.879Z,5616
2017-08-10T08:31:45.457Z,5560
2017-08-10T08:32:26.050Z,5644
2017-08-10T08:33:06.654Z,5888
2017-08-10T08:33:47.240Z,6300
2017-08-10T08:34:27.849Z,6404
2017-08-10T08:35:08.431Z,6424
2017-08-10T08:35:49.000Z,6316
2017-08-10T08:36:29.620Z,6296
2017-08-10T08:37:10.144Z,6168
2017-08-10T08:37:50.708Z,5972
2017-08-10T08:38:31.282Z,5772
2017-08-10T08:39:11.850Z,5664
2017-08-10T08:39:52.448Z,5732
2017-08-10T08:40:33.032Z,5940
2017-08-10T08:41:13.609Z,6068
2017-08-10T08:41:54.209Z,6236
2017-08-10T08:42:34.798Z,6376
2017-08-10T08:43:15.365Z,6664
2017-08-10T08:43:55.951Z,7004
2017-08-10T08:44:36.517Z,7240
2017-08-10T08:45:17.131Z,7536
2017-08-10T08:45:57.707Z,7720
2017-08-10T08:46:38.279Z,7880
2017-08-10T08:47:18.850Z,8084
2017-08-10T08:47:59.437Z,8480
2017-08-10T08:48:40.056Z,9116
2017-08-10T08:49:20.674Z,9864
2017-08-10T08:50:01.298Z,10648
2017-08-10T08:50:41.878Z,11272
2017-08-10T08:51:22.492Z,11812
2017-08-10T08:52:03.060Z,12300
2017-08-10T08:52:43.628Z,12628
2017-08-10T08:53:24.204Z,12916
2017-08-10T08:54:04.762Z,13200
2017-08-10T08:54:45.345Z,13208
2017-08-10T08:55:25.924Z,13148
2017-08-10T08:56:06.506Z,13140
2017-08-10T08:56:47.085Z,13060
2017-08-10T08:57:27.673Z,12676
2017-08-10T08:58:08.237Z,11864
2017-08-10T08:58:48.811Z,11416
2017-08-10T08:59:29.377Z,11092
2017-08-10T09:00:09.966Z,10748
2017-08-10T09:00:50.568Z,10484
2017-08-10T09:01:31.138Z,10300
2017-08-10T09:02:11.710Z,10312
2017-08-10T09:02:52.278Z,10200
2017-08-10T09:03:32.845Z,10324
2017-08-10T09:04:13.420Z,10392
2017-08-10T09:04:54.011Z,10652
2017-08-10T09:05:34.597Z,11020
2017-08-10T09:06:15.151Z,11268
2017-08-10T09:06:55.736Z,11708
2017-08-10T09:07:36.319Z,12060
2017-08-10T09:08:16.887Z,12240
2017-08-10T09:08:57.465Z,12352
2017-08-10T09:09:38.042Z,12340
2017-08-10T09:10:18.638Z,12320
2017-08-10T09:10:59.263Z,12388
2017-08-10T09:11:39.843Z,12484
2017-08-10T09:12:20.437Z,12616
2017-08-10T09:13:01.051Z,12628
2017-08-10T09:13:41.612Z,12680
2017-08-10T09:14:22.201Z,12696
2017-08-10T09:15:02.785Z,12668
2017-08-10T09:15:43.360Z,12512
2017-08-10T09:16:23.953Z,12256
2017-08-10T09:17:04.578Z,11932
2017-08-10T09:17:45.162Z,11576
2017-08-10T09:18:25.769Z,11240
2017-08-10T09:19:06.355Z,10908
2017-08-10T09:19:46.976Z,10688
2017-08-10T09:20:27.580Z,10588
2017-08-10T09:21:08.169Z,10616
2017-08-10T09:21:48.788Z,10808
2017-08-10T09:22:29.350Z,11048
2017-08-10T09:23:09.976Z,11304
2017-08-10T09:23:50.551Z,11632
2017-08-10T09:24:31.145Z,11908
2017-08-10T09:25:11.762Z,12280
2017-08-10T09:25:52.337Z,12576
2017-08-10T09:26:32.928Z,12800
2017-08-10T09:27:13.529Z,12940